Time;durP1;ratioP1;P1;durP2;ratioP2;P2;SDS_P1;SDS_P2;PMS_P1;PMS_P2;Temp;Humidity;BMP_temperature;BMP_pressure;BME280_temperature;BME280_humidity;BME280_pressure;Samples;Min_cycle;Max_cycle;Signal;HPM_P1;HPM_P2
2023/04/22 00:00:57;;;;;;;4.03;3.25;;;;;;;;;;5095055;28;20384;-83
2023/04/22 00:03:23;;;;;;;3.33;3.03;;;;;;;;;;5093785;28;21103;-83
2023/04/22 00:05:49;;;;;;;3.80;3.50;;;;;;;;;;5087819;28;20884;-83
2023/04/22 00:08:15;;;;;;;3.45;3.10;;;;;;;;;;5089800;28;20378;-83
2023/04/22 00:10:41;;;;;;;3.50;3.20;;;;;;;;;;5095025;28;20402;-83
2023/04/22 00:13:07;;;;;;;3.23;3.03;;;;;;;;;;5094985;28;20377;-82
2023/04/22 00:15:33;;;;;;;3.50;3.20;;;;;;;;;;5094853;28;20377;-82
2023/04/22 00:17:59;;;;;;;3.35;3.10;;;;;;;;;;5094861;28;20443;-82
2023/04/22 00:20:25;;;;;;;3.63;3.33;;;;;;;;;;5094795;28;20382;-82
2023/04/22 00:22:51;;;;;;;3.80;3.40;;;;;;;;;;5094740;28;20875;-82
2023/04/22 00:25:17;;;;;;;3.40;3.10;;;;;;;;;;5094736;28;20392;-82
2023/04/22 00:27:44;;;;;;;3.15;2.85;;;;;;;;;;5091494;28;20380;-81
2023/04/22 00:30:10;;;;;;;3.15;2.90;;;;;;;;;;5094642;28;20478;-82
2023/04/22 00:32:37;;;;;;;3.42;3.13;;;;;;;;;;5094549;28;20409;-82
2023/04/22 00:35:03;;;;;;;3.60;3.30;;;;;;;;;;5091645;28;20368;-82
2023/04/22 00:37:29;;;;;;;4.07;3.00;;;;;;;;;;5102054;28;20397;-82
2023/04/22 00:39:56;;;;;;;3.42;2.97;;;;;;;;;;5105611;28;20759;-82
2023/04/22 00:42:23;;;;;;;3.38;3.10;;;;;;;;;;5108833;28;20470;-83
2023/04/22 00:44:49;;;;;;;3.25;2.95;;;;;;;;;;5113838;28;20408;-82
2023/04/22 00:47:15;;;;;;;3.10;2.80;;;;;;;;;;5100259;28;20385;-82
2023/04/22 00:49:41;;;;;;;3.17;2.88;;;;;;;;;;5094133;28;20410;-82
2023/04/22 00:52:07;;;;;;;3.83;3.42;;;;;;;;;;5092970;28;20386;-82
2023/04/22 00:54:34;;;;;;;3.63;3.33;;;;;;;;;;5094020;28;20496;-83
2023/04/22 00:57:01;;;;;;;4.07;3.50;;;;;;;;;;5092320;28;20382;-83
2023/04/22 00:59:27;;;;;;;4.00;3.60;;;;;;;;;;5094091;28;20436;-82
2023/04/22 01:01:53;;;;;;;3.70;3.27;;;;;;;;;;5094021;28;20390;-83
2023/04/22 01:04:20;;;;;;;4.18;3.80;;;;;;;;;;5094096;28;20924;-83
2023/04/22 01:06:46;;;;;;;3.72;3.42;;;;;;;;;;5093624;28;20385;-83
2023/04/22 01:09:13;;;;;;;3.10;2.80;;;;;;;;;;5093832;28;20575;-82
2023/04/22 01:11:39;;;;;;;3.50;3.20;;;;;;;;;;5093800;28;20381;-83
2023/04/22 01:14:05;;;;;;;3.30;3.00;;;;;;;;;;5093925;28;20371;-83
2023/04/22 01:16:34;;;;;;;3.13;2.85;;;;;;;;;;5093829;28;20382;-82
2023/04/22 01:19:00;;;;;;;3.40;3.10;;;;;;;;;;5093535;28;20374;-83
2023/04/22 01:21:28;;;;;;;3.60;2.97;;;;;;;;;;5093741;28;20427;-83
2023/04/22 01:23:54;;;;;;;3.22;3.00;;;;;;;;;;5090142;28;20381;-83
2023/04/22 01:26:21;;;;;;;3.17;2.97;;;;;;;;;;5093706;28;20461;-83
2023/04/22 01:28:49;;;;;;;4.00;3.33;;;;;;;;;;5092545;28;20446;-83
2023/04/22 01:31:15;;;;;;;3.88;3.00;;;;;;;;;;5093589;28;20740;-83
2023/04/22 01:33:41;;;;;;;3.33;2.80;;;;;;;;;;5093383;28;20374;-83
2023/04/22 01:36:07;;;;;;;3.53;3.22;;;;;;;;;;5096420;28;20370;-83
2023/04/22 01:38:34;;;;;;;3.22;3.03;;;;;;;;;;5110466;28;20495;-83
2023/04/22 01:41:01;;;;;;;3.20;2.85;;;;;;;;;;5103716;28;20390;-83
2023/04/22 01:43:29;;;;;;;3.42;2.50;;;;;;;;;;5092998;28;20378;-82
2023/04/22 01:45:55;;;;;;;3.13;2.83;;;;;;;;;;5093194;28;20370;-83
2023/04/22 01:48:21;;;;;;;3.13;2.92;;;;;;;;;;5092966;28;20382;-83
2023/04/22 01:50:47;;;;;;;3.50;3.20;;;;;;;;;;5093137;28;20397;-82
2023/04/22 01:53:13;;;;;;;3.97;2.95;;;;;;;;;;5092986;28;20413;-83
2023/04/22 01:55:39;;;;;;;3.22;2.92;;;;;;;;;;5093073;28;20380;-83
2023/04/22 01:58:05;;;;;;;3.65;2.70;;;;;;;;;;5092847;28;20422;-83
2023/04/22 02:00:31;;;;;;;3.20;2.72;;;;;;;;;;5092931;28;20374;-83
2023/04/22 02:02:57;;;;;;;3.10;2.80;;;;;;;;;;5092958;28;20382;-82
2023/04/22 02:05:23;;;;;;;5.35;3.00;;;;;;;;;;5092489;28;20374;-83
2023/04/22 02:07:52;;;;;;;3.00;2.70;;;;;;;;;;5092710;28;20382;-83
2023/04/22 02:10:18;;;;;;;2.83;2.63;;;;;;;;;;5092581;28;20397;-83
2023/04/22 02:12:44;;;;;;;3.33;2.90;;;;;;;;;;5088629;28;20425;-83
2023/04/22 02:15:10;;;;;;;2.90;2.70;;;;;;;;;;5076541;28;20391;-83
2023/04/22 02:17:37;;;;;;;3.17;2.80;;;;;;;;;;5077503;28;20378;-83
2023/04/22 02:20:04;;;;;;;2.72;2.53;;;;;;;;;;5085112;28;20458;-83
2023/04/22 02:22:30;;;;;;;3.20;2.65;;;;;;;;;;5085741;28;20370;-83
2023/04/22 02:24:56;;;;;;;2.55;2.35;;;;;;;;;;5092509;28;20394;-83
2023/04/22 02:27:22;;;;;;;3.03;2.83;;;;;;;;;;5092407;28;20397;-82
2023/04/22 02:29:48;;;;;;;3.33;2.45;;;;;;;;;;5089015;28;20833;-83
2023/04/22 02:32:16;;;;;;;2.88;2.60;;;;;;;;;;5092188;28;20465;-82
2023/04/22 02:34:42;;;;;;;3.45;2.60;;;;;;;;;;5090782;28;20811;-83
2023/04/22 02:37:08;;;;;;;2.40;2.20;;;;;;;;;;5095608;28;20401;-83
2023/04/22 02:39:34;;;;;;;2.60;2.40;;;;;;;;;;5097884;28;20504;-82
2023/04/22 02:42:00;;;;;;;2.97;2.60;;;;;;;;;;5100491;28;20382;-83
2023/04/22 02:44:26;;;;;;;2.43;2.23;;;;;;;;;;5091697;28;20374;-82
2023/04/22 02:46:52;;;;;;;2.60;2.40;;;;;;;;;;5097796;28;20463;-82
2023/04/22 02:49:18;;;;;;;2.30;2.10;;;;;;;;;;5105914;28;20396;-82
2023/04/22 02:51:44;;;;;;;3.20;2.20;;;;;;;;;;5092969;28;20855;-82
2023/04/22 02:54:10;;;;;;;3.00;2.03;;;;;;;;;;5091984;28;20378;-82
2023/04/22 02:56:36;;;;;;;3.50;2.28;;;;;;;;;;5091868;28;20370;-82
2023/04/22 02:59:02;;;;;;;2.83;2.40;;;;;;;;;;5091826;28;20374;-82
2023/04/22 03:01:28;;;;;;;2.50;2.30;;;;;;;;;;5091731;28;20823;-82
2023/04/22 03:03:54;;;;;;;2.92;2.22;;;;;;;;;;5091879;28;20409;-82
2023/04/22 03:06:20;;;;;;;3.13;2.03;;;;;;;;;;5091762;28;20401;-82
2023/04/22 03:08:46;;;;;;;2.95;2.58;;;;;;;;;;5091505;28;20381;-82
2023/04/22 03:11:12;;;;;;;2.42;2.22;;;;;;;;;;5090921;28;20383;-82
2023/04/22 03:13:38;;;;;;;2.70;2.50;;;;;;;;;;5089896;28;20370;-82
2023/04/22 03:16:04;;;;;;;2.60;2.40;;;;;;;;;;5090032;28;20401;-83
2023/04/22 03:18:30;;;;;;;2.47;2.28;;;;;;;;;;5089701;28;20366;-83
2023/04/22 03:20:56;;;;;;;2.55;2.35;;;;;;;;;;5089809;28;20378;-83
2023/04/22 03:23:22;;;;;;;2.45;2.25;;;;;;;;;;5090162;28;20404;-82
2023/04/22 03:25:48;;;;;;;2.70;2.50;;;;;;;;;;5090401;28;20378;-82
2023/04/22 03:28:14;;;;;;;2.60;2.40;;;;;;;;;;5090637;28;20827;-82
2023/04/22 03:30:40;;;;;;;2.67;2.40;;;;;;;;;;5091372;28;20412;-82
2023/04/22 03:33:06;;;;;;;2.97;2.67;;;;;;;;;;5085779;28;20390;-82
2023/04/22 03:35:32;;;;;;;2.72;2.53;;;;;;;;;;5077076;28;20444;-82
2023/04/22 03:37:58;;;;;;;2.60;2.40;;;;;;;;;;5092876;28;20459;-82
2023/04/22 03:40:24;;;;;;;2.83;2.63;;;;;;;;;;5092029;28;20468;-83
2023/04/22 03:42:50;;;;;;;2.45;2.25;;;;;;;;;;5094391;28;20396;-82
2023/04/22 03:45:16;;;;;;;2.55;2.10;;;;;;;;;;5093094;28;20436;-82
2023/04/22 03:47:42;;;;;;;2.33;2.13;;;;;;;;;;5106627;28;20437;-83
2023/04/22 03:50:08;;;;;;;2.40;2.20;;;;;;;;;;5101201;28;20410;-83
2023/04/22 03:52:34;;;;;;;2.67;2.28;;;;;;;;;;5091273;28;20465;-82
2023/04/22 03:55:00;;;;;;;2.70;2.50;;;;;;;;;;5091050;28;20366;-82
2023/04/22 03:57:26;;;;;;;3.00;2.67;;;;;;;;;;5091296;28;20370;-83
2023/04/22 03:59:52;;;;;;;2.97;2.40;;;;;;;;;;5090937;28;20405;-83
2023/04/22 04:02:18;;;;;;;2.88;2.38;;;;;;;;;;5091178;28;20378;-82
2023/04/22 04:04:44;;;;;;;2.50;2.30;;;;;;;;;;5091188;28;20721;-83
2023/04/22 04:07:10;;;;;;;2.50;2.30;;;;;;;;;;5090882;28;20386;-82
2023/04/22 04:09:36;;;;;;;3.05;2.75;;;;;;;;;;5090856;28;20898;-82
2023/04/22 04:12:02;;;;;;;2.47;2.28;;;;;;;;;;5090896;28;20375;-82
2023/04/22 04:14:28;;;;;;;2.45;2.25;;;;;;;;;;5091064;28;20381;-82
2023/04/22 04:16:54;;;;;;;2.50;2.30;;;;;;;;;;5090842;28;20374;-82
2023/04/22 04:19:20;;;;;;;3.20;2.55;;;;;;;;;;5079490;28;20467;-84
2023/04/22 04:21:46;;;;;;;2.80;2.50;;;;;;;;;;5090908;28;20736;-84
2023/04/22 04:24:12;;;;;;;3.25;2.40;;;;;;;;;;5090576;28;20389;-83
2023/04/22 04:26:38;;;;;;;2.72;2.05;;;;;;;;;;5077104;28;20384;-82
2023/04/22 04:29:05;;;;;;;3.45;2.40;;;;;;;;;;5081433;28;20401;-83
2023/04/22 04:31:34;;;;;;;2.67;2.45;;;;;;;;;;5091591;28;20382;-84
2023/04/22 04:34:00;;;;;;;2.40;2.20;;;;;;;;;;5084374;28;20390;-84
2023/04/22 04:36:28;;;;;;;2.72;2.50;;;;;;;;;;5084557;28;20384;-84
2023/04/22 04:38:54;;;;;;;3.80;2.67;;;;;;;;;;5098590;28;20400;-83
2023/04/22 04:41:20;;;;;;;2.95;2.60;;;;;;;;;;5100822;28;20436;-84
2023/04/22 04:43:47;;;;;;;2.90;2.70;;;;;;;;;;5083609;28;20737;-83
2023/04/22 04:46:13;;;;;;;3.40;2.60;;;;;;;;;;5083904;28;20859;-84
2023/04/22 04:48:42;;;;;;;3.27;2.90;;;;;;;;;;5098244;28;20408;-84
2023/04/22 04:51:08;;;;;;;5.72;5.07;;;;;;;;;;5086789;27;20466;-83
2023/04/22 04:53:35;;;;;;;3.20;2.63;;;;;;;;;;5093963;28;20712;-83
2023/04/22 04:56:01;;;;;;;2.90;2.70;;;;;;;;;;5092304;28;20922;-84
2023/04/22 04:58:27;;;;;;;3.10;2.80;;;;;;;;;;5089057;28;20382;-84
2023/04/22 05:00:53;;;;;;;2.97;2.75;;;;;;;;;;5089094;28;20393;-83
2023/04/22 05:03:19;;;;;;;2.77;2.57;;;;;;;;;;5084693;28;20467;-82
2023/04/22 05:05:47;;;;;;;3.95;2.67;;;;;;;;;;5087205;28;20389;-83
2023/04/22 05:08:13;;;;;;;2.90;2.70;;;;;;;;;;5084911;28;20386;-83
2023/04/22 05:10:41;;;;;;;3.50;3.20;;;;;;;;;;5083943;28;20410;-84
2023/04/22 05:13:07;;;;;;;3.80;3.50;;;;;;;;;;5092625;28;20374;-83
2023/04/22 05:15:33;;;;;;;3.85;3.55;;;;;;;;;;5086741;28;20387;-84
2023/04/22 05:17:59;;;;;;;4.20;3.90;;;;;;;;;;5084204;28;20383;-84
2023/04/22 05:20:25;;;;;;;3.65;3.35;;;;;;;;;;5091102;28;20859;-84
2023/04/22 05:22:51;;;;;;;4.80;4.40;;;;;;;;;;5090656;28;20435;-84
2023/04/22 05:25:17;;;;;;;3.78;3.47;;;;;;;;;;5087283;28;20390;-84
2023/04/22 05:27:43;;;;;;;3.50;3.20;;;;;;;;;;5088748;28;20433;-84
2023/04/22 05:30:09;;;;;;;3.53;3.05;;;;;;;;;;5074772;28;20888;-85
2023/04/22 05:32:35;;;;;;;3.03;2.83;;;;;;;;;;5074605;28;20429;-85
2023/04/22 05:35:01;;;;;;;3.30;3.10;;;;;;;;;;5082347;28;20398;-84
2023/04/22 05:37:27;;;;;;;5.53;5.13;;;;;;;;;;5089873;28;20374;-84
2023/04/22 05:39:53;;;;;;;5.97;5.47;;;;;;;;;;5093583;28;20544;-82
2023/04/22 05:42:19;;;;;;;9.13;8.38;;;;;;;;;;5095789;28;20479;-84
2023/04/22 05:44:45;;;;;;;9.57;8.82;;;;;;;;;;5103199;28;20459;-84
2023/04/22 05:47:11;;;;;;;10.23;9.52;;;;;;;;;;5092871;28;20421;-82
2023/04/22 05:49:37;;;;;;;10.05;9.35;;;;;;;;;;5094602;28;20402;-82
2023/04/22 05:52:03;;;;;;;9.57;8.88;;;;;;;;;;5103013;28;20850;-82
2023/04/22 05:54:29;;;;;;;7.03;6.43;;;;;;;;;;5088445;28;20390;-82
2023/04/22 05:56:55;;;;;;;5.90;5.40;;;;;;;;;;5081624;28;20378;-82
2023/04/22 05:59:21;;;;;;;6.43;5.93;;;;;;;;;;5092313;28;20460;-82
2023/04/22 06:01:47;;;;;;;5.80;5.30;;;;;;;;;;5094787;28;20389;-82
2023/04/22 06:04:14;;;;;;;5.90;5.50;;;;;;;;;;5092280;28;20378;-81
2023/04/22 06:06:40;;;;;;;5.90;5.50;;;;;;;;;;5091855;28;20474;-81
2023/04/22 06:09:06;;;;;;;5.70;5.30;;;;;;;;;;5090577;28;20826;-81
2023/04/22 06:11:32;;;;;;;5.72;5.32;;;;;;;;;;5092703;28;20378;-81
2023/04/22 06:13:58;;;;;;;5.53;5.13;;;;;;;;;;5092690;28;20374;-82
2023/04/22 06:16:25;;;;;;;6.20;5.35;;;;;;;;;;5085998;28;20370;-82
2023/04/22 06:18:51;;;;;;;5.18;4.78;;;;;;;;;;5092338;28;20777;-82
2023/04/22 06:21:17;;;;;;;5.72;5.32;;;;;;;;;;5090117;28;20431;-82
2023/04/22 06:23:43;;;;;;;6.95;6.45;;;;;;;;;;5092303;28;20435;-82
2023/04/22 06:26:09;;;;;;;8.50;7.80;;;;;;;;;;5083053;28;20435;-82
2023/04/22 06:28:35;;;;;;;8.80;8.10;;;;;;;;;;5089932;28;20874;-82
2023/04/22 06:31:01;;;;;;;8.60;7.90;;;;;;;;;;5091878;28;20405;-82
2023/04/22 06:33:27;;;;;;;8.70;8.00;;;;;;;;;;5092245;28;20386;-82
2023/04/22 06:35:53;;;;;;;8.10;7.40;;;;;;;;;;5092936;28;20457;-82
2023/04/22 06:38:19;;;;;;;8.90;8.20;;;;;;;;;;5091929;28;20747;-82
2023/04/22 06:40:45;;;;;;;7.93;7.32;;;;;;;;;;5095083;28;20381;-82
2023/04/22 06:43:11;;;;;;;8.30;7.60;;;;;;;;;;5094922;28;20468;-82
2023/04/22 06:45:37;;;;;;;7.18;6.55;;;;;;;;;;5102684;28;20403;-82
2023/04/22 06:48:03;;;;;;;6.65;6.05;;;;;;;;;;5106846;28;20421;-82
2023/04/22 06:50:29;;;;;;;6.97;6.37;;;;;;;;;;5105217;28;20461;-82
2023/04/22 06:52:55;;;;;;;6.18;5.25;;;;;;;;;;5096299;28;20377;-82
2023/04/22 06:55:21;;;;;;;5.80;5.30;;;;;;;;;;5091966;28;20378;-82
2023/04/22 06:57:47;;;;;;;4.83;4.40;;;;;;;;;;5091854;28;20839;-82
2023/04/22 07:00:13;;;;;;;4.30;4.00;;;;;;;;;;5091648;28;20374;-83
2023/04/22 07:02:39;;;;;;;4.10;3.80;;;;;;;;;;5091671;28;20413;-81
2023/04/22 07:05:05;;;;;;;4.15;3.70;;;;;;;;;;5091368;28;20426;-81
2023/04/22 07:07:31;;;;;;;4.45;4.03;;;;;;;;;;5091711;28;20382;-81
2023/04/22 07:09:57;;;;;;;4.20;3.90;;;;;;;;;;5091357;28;20409;-81
2023/04/22 07:12:26;;;;;;;5.18;4.78;;;;;;;;;;5091738;28;20959;-83
2023/04/22 07:14:52;;;;;;;4.80;4.45;;;;;;;;;;5091579;28;20845;-81
2023/04/22 07:17:21;;;;;;;4.63;4.27;;;;;;;;;;5091440;28;20377;-80
2023/04/22 07:19:47;;;;;;;5.22;4.80;;;;;;;;;;5091249;28;20405;-81
2023/04/22 07:22:13;;;;;;;4.60;4.30;;;;;;;;;;5091421;28;20427;-82
2023/04/22 07:24:39;;;;;;;4.70;4.30;;;;;;;;;;5091532;28;20382;-82
2023/04/22 07:27:05;;;;;;;5.00;4.50;;;;;;;;;;5091040;28;20382;-83
2023/04/22 07:29:31;;;;;;;5.30;4.60;;;;;;;;;;5088186;28;20405;-82
2023/04/22 07:31:57;;;;;;;4.50;4.20;;;;;;;;;;5091433;28;20375;-82
2023/04/22 07:34:23;;;;;;;4.50;4.10;;;;;;;;;;5081582;28;20397;-82
2023/04/22 07:36:52;;;;;;;4.68;4.10;;;;;;;;;;5091345;28;20382;-82
2023/04/22 07:39:19;;;;;;;4.18;3.88;;;;;;;;;;5091089;28;20406;-82
2023/04/22 07:41:45;;;;;;;4.47;3.55;;;;;;;;;;5092177;28;20483;-82
2023/04/22 07:44:15;;;;;;;4.30;3.90;;;;;;;;;;5101397;28;20780;-82
2023/04/22 07:46:41;;;;;;;4.57;3.85;;;;;;;;;;5104395;28;20383;-82
2023/04/22 07:49:07;;;;;;;4.22;3.90;;;;;;;;;;5108353;28;20449;-82
2023/04/22 07:51:33;;;;;;;4.80;4.38;;;;;;;;;;5096965;28;20382;-82
2023/04/22 07:53:59;;;;;;;8.57;7.90;;;;;;;;;;5081532;28;20385;-82
2023/04/22 07:56:25;;;;;;;6.28;5.75;;;;;;;;;;5072466;28;20374;-82
2023/04/22 07:58:51;;;;;;;5.57;5.18;;;;;;;;;;5090380;28;20374;-82
2023/04/22 08:01:17;;;;;;;5.60;5.20;;;;;;;;;;5090052;28;20731;-82
2023/04/22 08:03:43;;;;;;;6.68;6.10;;;;;;;;;;5091012;28;20430;-82
2023/04/22 08:06:09;;;;;;;6.00;5.50;;;;;;;;;;5094684;28;20378;-82
2023/04/22 08:08:35;;;;;;;6.03;5.35;;;;;;;;;;5095049;28;20392;-82
2023/04/22 08:11:01;;;;;;;5.40;4.90;;;;;;;;;;5095064;28;20882;-82
2023/04/22 08:13:27;;;;;;;6.00;5.50;;;;;;;;;;5095263;28;20379;-82
2023/04/22 08:15:53;;;;;;;5.60;5.20;;;;;;;;;;5095025;28;20784;-82
2023/04/22 08:18:19;;;;;;;4.88;4.38;;;;;;;;;;5095013;28;20377;-82
2023/04/22 08:20:46;;;;;;;4.20;3.90;;;;;;;;;;5094783;28;20403;-82
2023/04/22 08:23:12;;;;;;;4.45;4.05;;;;;;;;;;5094795;28;20378;-82
2023/04/22 08:25:38;;;;;;;3.97;3.58;;;;;;;;;;5092334;28;20474;-82
2023/04/22 08:28:04;;;;;;;3.55;3.28;;;;;;;;;;5093825;28;20461;-82
2023/04/22 08:30:30;;;;;;;5.20;3.40;;;;;;;;;;5094553;28;20886;-82
2023/04/22 08:32:56;;;;;;;3.30;3.00;;;;;;;;;;5092067;28;20382;-81
2023/04/22 08:35:22;;;;;;;3.50;3.30;;;;;;;;;;5092470;28;20886;-82
2023/04/22 08:37:48;;;;;;;3.47;3.15;;;;;;;;;;5094250;28;20922;-81
2023/04/22 08:40:14;;;;;;;3.50;3.20;;;;;;;;;;5092929;28;20417;-81
2023/04/22 08:42:40;;;;;;;3.30;3.00;;;;;;;;;;5096973;28;20463;-81
2023/04/22 08:45:08;;;;;;;3.45;3.15;;;;;;;;;;5103918;28;20376;-81
2023/04/22 08:47:34;;;;;;;3.50;2.85;;;;;;;;;;5105160;28;20384;-81
2023/04/22 08:50:02;;;;;;;3.20;2.90;;;;;;;;;;5109752;28;20479;-81
2023/04/22 08:52:29;;;;;;;3.60;3.25;;;;;;;;;;5107691;28;20378;-82
2023/04/22 08:54:56;;;;;;;4.57;3.40;;;;;;;;;;5097017;28;20378;-81
2023/04/22 08:57:22;;;;;;;3.38;2.92;;;;;;;;;;5092930;28;20382;-80
2023/04/22 08:59:49;;;;;;;3.53;3.20;;;;;;;;;;5093915;28;20382;-81
2023/04/22 09:02:21;;;;;;;3.28;2.97;;;;;;;;;;5094207;28;20475;-81
2023/04/22 09:04:49;;;;;;;4.15;3.28;;;;;;;;;;5094016;28;20393;-81
2023/04/22 09:07:22;;;;;;;3.40;3.10;;;;;;;;;;5094094;28;20378;-81
2023/04/22 09:09:49;;;;;;;2.97;2.73;;;;;;;;;;5093901;28;20394;-81
2023/04/22 09:12:17;;;;;;;2.73;2.53;;;;;;;;;;5093836;28;20855;-81
2023/04/22 09:14:43;;;;;;;3.40;2.90;;;;;;;;;;5093902;28;20385;-81
2023/04/22 09:17:09;;;;;;;3.88;2.72;;;;;;;;;;5092754;28;20396;-81
2023/04/22 09:19:35;;;;;;;5.95;4.38;;;;;;;;;;5092403;28;20386;-81
2023/04/22 09:22:01;;;;;;;2.85;2.65;;;;;;;;;;5093714;28;20383;-81
2023/04/22 09:24:27;;;;;;;3.20;2.90;;;;;;;;;;5093769;28;20389;-81
2023/04/22 09:26:58;;;;;;;6.22;3.60;;;;;;;;;;5093329;28;20740;-81
2023/04/22 09:29:29;;;;;;;3.22;2.92;;;;;;;;;;5088299;28;20954;-81
2023/04/22 09:31:55;;;;;;;4.00;3.60;;;;;;;;;;5101229;28;20739;-81
2023/04/22 09:34:22;;;;;;;2.65;2.42;;;;;;;;;;5094323;28;20386;-81
2023/04/22 09:36:50;;;;;;;2.92;2.63;;;;;;;;;;5093563;28;20389;-79
2023/04/22 09:39:16;;;;;;;2.50;2.30;;;;;;;;;;5093180;28;20401;-79
2023/04/22 09:41:43;;;;;;;2.60;2.40;;;;;;;;;;5093486;28;20382;-79
2023/04/22 09:44:16;;;;;;;2.60;2.40;;;;;;;;;;5092878;28;20386;-81
2023/04/22 09:46:43;;;;;;;2.78;2.47;;;;;;;;;;5104118;28;20856;-81
2023/04/22 09:49:09;;;;;;;3.50;2.90;;;;;;;;;;5103323;28;20388;-81
2023/04/22 09:51:39;;;;;;;3.03;2.50;;;;;;;;;;5103461;28;20743;-81
2023/04/22 09:54:08;;;;;;;2.67;2.47;;;;;;;;;;5094472;28;20371;-82
2023/04/22 09:56:53;;;;;;;2.83;2.63;;;;;;;;;;5096027;28;20393;-81
2023/04/22 09:59:23;;;;;;;4.20;3.80;;;;;;;;;;5094927;22;20519;-81
2023/04/22 10:01:50;;;;;;;3.60;3.30;;;;;;;;;;5072988;28;20856;-80
2023/04/22 10:04:20;;;;;;;3.45;3.15;;;;;;;;;;5073224;28;20384;-80
2023/04/22 10:06:46;;;;;;;4.70;3.30;;;;;;;;;;5072831;28;20414;-83
2023/04/22 10:09:12;;;;;;;3.88;3.00;;;;;;;;;;5071374;28;20752;-83
2023/04/22 10:11:39;;;;;;;3.10;2.83;;;;;;;;;;5071228;28;20896;-84
2023/04/22 10:14:05;;;;;;;3.85;3.00;;;;;;;;;;5072652;28;20380;-84
2023/04/22 10:16:33;;;;;;;3.20;2.90;;;;;;;;;;5072463;28;20379;-84
2023/04/22 10:19:02;;;;;;;4.03;3.50;;;;;;;;;;5072320;28;20398;-80
2023/04/22 10:21:29;;;;;;;3.67;2.90;;;;;;;;;;5071654;28;20386;-81
2023/04/22 10:23:57;;;;;;;3.65;3.35;;;;;;;;;;5070975;28;21182;-81
2023/04/22 10:26:43;;;;;;;2.45;2.25;;;;;;;;;;5072349;28;20382;-81
2023/04/22 10:29:15;;;;;;;4.07;2.60;;;;;;;;;;5067903;28;20390;-81
2023/04/22 10:31:41;;;;;;;2.40;2.20;;;;;;;;;;5072233;28;20368;-81
2023/04/22 10:34:12;;;;;;;2.78;2.17;;;;;;;;;;5067195;28;20383;-81
2023/04/22 10:36:56;;;;;;;3.85;2.40;;;;;;;;;;5072082;28;20882;-81
2023/04/22 10:39:22;;;;;;;3.53;2.22;;;;;;;;;;5071552;28;20466;-81
2023/04/22 10:41:56;;;;;;;3.53;2.78;;;;;;;;;;5071951;28;20391;-81
2023/04/22 10:44:27;;;;;;;2.65;2.45;;;;;;;;;;5071874;28;20380;-82
2023/04/22 10:46:53;;;;;;;6.22;5.05;;;;;;;;;;5073147;28;20853;-81
2023/04/22 10:49:20;;;;;;;2.45;2.25;;;;;;;;;;5085141;28;20411;-81
2023/04/22 10:51:47;;;;;;;3.70;2.90;;;;;;;;;;5064686;28;20396;-81
2023/04/22 10:54:28;;;;;;;4.33;3.63;;;;;;;;;;5070506;28;20416;-81
2023/04/22 10:57:03;;;;;;;2.92;2.70;;;;;;;;;;5071597;28;20375;-82
2023/04/22 10:59:32;;;;;;;2.83;2.63;;;;;;;;;;5072055;28;20395;-82
2023/04/22 11:02:05;;;;;;;2.67;2.20;;;;;;;;;;5071725;28;20888;-83
2023/04/22 11:04:31;;;;;;;2.97;2.00;;;;;;;;;;5071744;28;20375;-84
2023/04/22 11:07:16;;;;;;;2.28;2.08;;;;;;;;;;5071210;28;20403;-82
2023/04/22 11:09:54;;;;;;;2.17;1.80;;;;;;;;;;5071378;28;20399;-81
2023/04/22 11:12:40;;;;;;;1.90;1.80;;;;;;;;;;5071357;28;20374;-83
2023/04/22 11:15:13;;;;;;;1.80;1.70;;;;;;;;;;5057005;28;20384;-83
2023/04/22 11:17:41;;;;;;;1.58;1.48;;;;;;;;;;5071455;28;20380;-83
2023/04/22 11:20:07;;;;;;;1.40;1.30;;;;;;;;;;5065854;28;20391;-84
2023/04/22 11:22:37;;;;;;;1.50;1.33;;;;;;;;;;5070064;28;20389;-83
2023/04/22 11:25:04;;;;;;;1.80;1.27;;;;;;;;;;5067733;28;20865;-82
2023/04/22 11:27:30;;;;;;;1.50;1.40;;;;;;;;;;5071203;28;20398;-86
2023/04/22 11:30:15;;;;;;;1.92;1.27;;;;;;;;;;5075078;28;20777;-88
2023/04/22 11:32:46;;;;;;;1.73;1.30;;;;;;;;;;5064361;28;20379;-86
2023/04/22 11:35:14;;;;;;;1.40;1.30;;;;;;;;;;5071231;28;20451;-87
2023/04/22 11:37:40;;;;;;;2.17;1.38;;;;;;;;;;5073831;28;20380;-86
2023/04/22 11:40:09;;;;;;;2.17;1.48;;;;;;;;;;5070771;28;20391;-86
2023/04/22 11:42:35;;;;;;;1.15;1.05;;;;;;;;;;5071337;28;20383;-87
2023/04/22 11:45:01;;;;;;;1.88;1.20;;;;;;;;;;5071365;28;20380;-87
2023/04/22 11:47:30;;;;;;;2.10;1.25;;;;;;;;;;5075422;28;20394;-87
2023/04/22 11:50:08;;;;;;;2.22;1.40;;;;;;;;;;5075304;28;20461;-87
2023/04/22 11:52:44;;;;;;;2.10;1.20;;;;;;;;;;5078872;28;20371;-87
2023/04/22 11:55:11;;;;;;;1.55;1.25;;;;;;;;;;5075651;28;20376;-88
2023/04/22 11:57:37;;;;;;;1.92;1.15;;;;;;;;;;5081419;28;20465;-86
2023/04/22 12:00:03;;;;;;;2.47;1.35;;;;;;;;;;5080314;28;20824;-88
2023/04/22 12:02:30;;;;;;;1.60;1.50;;;;;;;;;;5061395;28;20376;-87
2023/04/22 12:04:57;;;;;;;3.30;2.83;;;;;;;;;;5070924;28;20383;-87
2023/04/22 12:07:26;;;;;;;3.28;2.33;;;;;;;;;;5071053;28;20392;-87
2023/04/22 12:09:55;;;;;;;3.80;3.08;;;;;;;;;;5070772;28;20407;-87
2023/04/22 12:12:25;;;;;;;2.00;1.90;;;;;;;;;;5070987;28;20881;-87
2023/04/22 12:14:51;;;;;;;1.90;1.55;;;;;;;;;;5071156;28;20888;-88
2023/04/22 12:17:22;;;;;;;2.45;1.42;;;;;;;;;;5070861;28;20372;-88
2023/04/22 12:19:48;;;;;;;17.83;13.43;;;;;;;;;;5071113;28;20417;-87
2023/04/22 12:22:27;;;;;;;2.60;1.80;;;;;;;;;;5069223;28;20403;-88
2023/04/22 12:24:53;;;;;;;2.23;1.73;;;;;;;;;;5070910;28;20710;-90
2023/04/22 12:27:20;;;;;;;2.72;1.80;;;;;;;;;;5071715;28;20387;-87
2023/04/22 12:29:52;;;;;;;1.93;1.63;;;;;;;;;;5068792;28;20442;-84
2023/04/22 12:32:22;;;;;;;2.55;1.60;;;;;;;;;;5069374;28;20960;-83
2023/04/22 12:34:49;;;;;;;2.45;1.40;;;;;;;;;;5069012;28;20466;-83
2023/04/22 12:37:16;;;;;;;3.40;1.50;;;;;;;;;;5069391;28;20384;-81
2023/04/22 12:39:42;;;;;;;2.80;1.50;;;;;;;;;;5070513;28;20383;-80
2023/04/22 12:42:08;;;;;;;1.40;1.20;;;;;;;;;;5070533;28;20444;-82
2023/04/22 12:44:35;;;;;;;1.45;1.23;;;;;;;;;;5070719;28;20865;-80
2023/04/22 12:47:01;;;;;;;1.50;1.20;;;;;;;;;;5070470;28;20395;-84
2023/04/22 12:49:27;;;;;;;1.60;1.50;;;;;;;;;;5072449;28;20756;-86
2023/04/22 12:51:53;;;;;;;1.90;1.70;;;;;;;;;;5075997;28;20378;-82
2023/04/22 12:54:19;;;;;;;3.35;1.73;;;;;;;;;;5084416;28;20411;-83
2023/04/22 12:56:46;;;;;;;9.00;3.35;;;;;;;;;;5087504;28;20374;-81
2023/04/22 12:59:12;;;;;;;2.80;1.50;;;;;;;;;;5086667;28;20818;-82
2023/04/22 13:01:38;;;;;;;4.50;1.50;;;;;;;;;;5074085;28;20376;-82
2023/04/22 13:04:05;;;;;;;2.08;1.40;;;;;;;;;;5073941;28;20395;-83
2023/04/22 13:06:35;;;;;;;1.67;1.40;;;;;;;;;;5073438;28;20387;-84
2023/04/22 13:09:02;;;;;;;1.50;1.40;;;;;;;;;;5073860;28;20868;-81
2023/04/22 13:11:28;;;;;;;1.92;1.50;;;;;;;;;;5073070;28;20462;-81
2023/04/22 13:13:54;;;;;;;2.92;1.50;;;;;;;;;;5073782;28;20388;-81
2023/04/22 13:16:20;;;;;;;2.00;1.57;;;;;;;;;;5073462;28;20387;-81
2023/04/22 13:18:46;;;;;;;1.63;1.40;;;;;;;;;;5073614;28;20383;-80
2023/04/22 13:21:13;;;;;;;1.50;1.40;;;;;;;;;;5073653;28;20745;-82
2023/04/22 13:23:39;;;;;;;1.70;1.60;;;;;;;;;;5073678;28;20386;-81
2023/04/22 13:26:05;;;;;;;3.60;1.90;;;;;;;;;;5070865;28;20375;-81
2023/04/22 13:28:31;;;;;;;1.90;1.58;;;;;;;;;;5073479;28;20391;-81
2023/04/22 13:30:57;;;;;;;2.10;1.50;;;;;;;;;;5073369;28;20434;-81
2023/04/22 13:33:23;;;;;;;3.00;2.38;;;;;;;;;;5072953;28;20476;-81
2023/04/22 13:35:49;;;;;;;4.82;1.88;;;;;;;;;;5073364;28;20376;-81
2023/04/22 13:38:15;;;;;;;2.28;2.05;;;;;;;;;;5073132;28;20376;-80
2023/04/22 13:40:41;;;;;;;3.67;2.50;;;;;;;;;;5073262;28;20865;-81
2023/04/22 13:43:08;;;;;;;2.05;1.80;;;;;;;;;;5073123;28;20386;-81
2023/04/22 13:45:34;;;;;;;2.50;1.70;;;;;;;;;;5073193;28;20384;-81
2023/04/22 13:48:00;;;;;;;2.50;1.70;;;;;;;;;;5073165;28;20387;-81
2023/04/22 13:50:26;;;;;;;1.90;1.42;;;;;;;;;;5083978;28;20415;-81
2023/04/22 13:52:52;;;;;;;2.00;1.80;;;;;;;;;;5074616;28;20437;-81
2023/04/22 13:55:19;;;;;;;3.17;1.67;;;;;;;;;;5087460;28;20372;-81
2023/04/22 13:57:45;;;;;;;2.53;1.65;;;;;;;;;;5081587;28;20376;-81
2023/04/22 14:00:11;;;;;;;4.03;2.00;;;;;;;;;;5076022;28;20465;-81
2023/04/22 14:02:37;;;;;;;3.45;2.17;;;;;;;;;;5072602;28;20376;-81
2023/04/22 14:05:04;;;;;;;4.65;1.63;;;;;;;;;;5072889;28;20378;-81
2023/04/22 14:07:30;;;;;;;2.50;1.60;;;;;;;;;;5072839;28;20547;-81
2023/04/22 14:09:56;;;;;;;3.20;1.73;;;;;;;;;;5071375;28;20557;-81
2023/04/22 14:12:22;;;;;;;2.60;1.42;;;;;;;;;;5072521;28;20783;-81
2023/04/22 14:14:48;;;;;;;2.40;1.80;;;;;;;;;;5072649;28;20387;-81
2023/04/22 14:17:15;;;;;;;2.13;1.70;;;;;;;;;;5072448;28;20376;-81
2023/04/22 14:19:43;;;;;;;4.07;1.67;;;;;;;;;;5072444;28;20372;-81
2023/04/22 14:22:09;;;;;;;2.97;1.57;;;;;;;;;;5072265;28;20437;-81
2023/04/22 14:24:35;;;;;;;1.98;1.35;;;;;;;;;;5072466;28;20391;-81
2023/04/22 14:27:01;;;;;;;1.88;1.45;;;;;;;;;;5072406;28;20463;-81
2023/04/22 14:29:28;;;;;;;1.70;1.35;;;;;;;;;;5070455;28;20803;-81
2023/04/22 14:31:55;;;;;;;2.63;1.70;;;;;;;;;;5072319;28;20430;-82
2023/04/22 14:34:21;;;;;;;1.40;1.30;;;;;;;;;;5072236;28;20375;-81
2023/04/22 14:36:46;;;;;;;3.55;1.40;;;;;;;;;;5071595;28;20472;-81
2023/04/22 14:39:12;;;;;;;2.70;1.58;;;;;;;;;;5072118;28;20462;-81
2023/04/22 14:41:39;;;;;;;2.13;1.52;;;;;;;;;;5071978;28;20425;-81